createdAt,value
2023-01-19T00:00:49.682Z,61.67
2023-01-19T00:03:16.458Z,61.62
2023-01-19T00:05:44.009Z,61.98
2023-01-19T00:08:17.709Z,61.96
2023-01-19T00:10:47.582Z,62.33
2023-01-19T00:13:14.837Z,62.22
2023-01-19T00:15:41.535Z,62.47
2023-01-19T00:18:10.750Z,62.20
2023-01-19T00:20:38.149Z,61.48
2023-01-19T00:23:05.247Z,61.41
2023-01-19T00:25:32.165Z,61.66
2023-01-19T00:28:01.380Z,61.62
2023-01-19T00:30:28.608Z,62.39
2023-01-19T00:32:55.707Z,62.39
2023-01-19T00:35:22.309Z,62.55
2023-01-19T00:37:48.904Z,62.54
2023-01-19T00:40:15.781Z,62.91
2023-01-19T00:42:44.530Z,62.77
2023-01-19T00:45:14.049Z,62.77
2023-01-19T00:47:40.882Z,62.74
2023-01-19T00:50:11.872Z,62.71
2023-01-19T00:52:39.389Z,63.21
2023-01-19T00:55:08.211Z,63.21
2023-01-19T00:57:35.084Z,62.80
2023-01-19T01:00:01.967Z,62.58
2023-01-19T01:02:28.756Z,63.00
2023-01-19T01:04:56.805Z,62.78
2023-01-19T01:07:24.897Z,62.83
2023-01-19T01:09:51.646Z,62.75
2023-01-19T01:12:18.263Z,62.42
2023-01-19T01:14:44.877Z,62.34
2023-01-19T01:17:14.374Z,63.06
2023-01-19T01:19:41.696Z,63.68
2023-01-19T01:22:09.826Z,63.41
2023-01-19T01:24:36.607Z,63.82
2023-01-19T01:27:03.324Z,64.95
2023-01-19T01:29:29.917Z,64.51
2023-01-19T01:31:56.559Z,64.84
2023-01-19T01:34:23.162Z,64.34
2023-01-19T01:36:49.757Z,64.36
2023-01-19T01:39:16.339Z,64.64
2023-01-19T01:41:42.943Z,65.66
2023-01-19T01:44:50.110Z,66.18
2023-01-19T01:47:41.744Z,65.89
2023-01-19T01:50:27.560Z,65.69
2023-01-19T01:53:12.102Z,65.42
2023-01-19T01:55:45.387Z,65.68
2023-01-19T01:58:13.871Z,65.33
2023-01-19T02:00:59.921Z,64.76
2023-01-19T02:03:28.146Z,65.96
2023-01-19T02:05:59.426Z,66.85
2023-01-19T02:08:55.750Z,66.11
2023-01-19T02:11:41.211Z,65.60
2023-01-19T02:14:08.159Z,65.35
2023-01-19T02:16:37.538Z,65.48
2023-01-19T02:19:07.236Z,65.36
2023-01-19T02:21:46.787Z,65.21
2023-01-19T02:24:13.964Z,65.11
2023-01-19T02:26:44.377Z,65.16
2023-01-19T02:29:14.709Z,64.52
2023-01-19T02:31:41.693Z,65.22
2023-01-19T02:34:11.102Z,66.60
2023-01-19T02:36:54.458Z,66.25
2023-01-19T02:39:25.634Z,66.98
2023-01-19T02:42:00.404Z,67.26
2023-01-19T02:44:29.217Z,67.13
2023-01-19T02:46:56.323Z,67.24
2023-01-19T02:49:23.865Z,67.79
2023-01-19T02:51:50.561Z,67.50
2023-01-19T02:54:28.914Z,67.24
2023-01-19T02:57:07.425Z,67.62
2023-01-19T03:00:01.504Z,67.41
2023-01-19T03:02:46.596Z,67.83
2023-01-19T03:05:31.295Z,68.54
2023-01-19T03:07:57.877Z,69.62
2023-01-19T03:10:42.912Z,68.83
2023-01-19T03:13:37.430Z,68.66
2023-01-19T03:16:16.324Z,68.28
2023-01-19T03:18:47.949Z,68.42
2023-01-19T03:21:19.680Z,67.78
2023-01-19T03:23:49.138Z,68.35
2023-01-19T03:26:24.016Z,68.25
2023-01-19T03:28:51.574Z,68.32
2023-01-19T03:31:22.901Z,68.26
2023-01-19T03:33:56.280Z,67.75
2023-01-19T03:36:31.234Z,68.55
2023-01-19T03:39:01.147Z,68.69
2023-01-19T03:41:30.472Z,68.64
2023-01-19T03:43:58.936Z,68.73
2023-01-19T03:46:27.304Z,68.88
2023-01-19T03:48:54.318Z,68.66
2023-01-19T03:51:22.168Z,68.61
2023-01-19T03:53:50.120Z,68.08
2023-01-19T03:56:24.879Z,67.88
2023-01-19T03:58:52.136Z,68.84
2023-01-19T04:01:23.382Z,68.12
2023-01-19T04:03:51.349Z,68.03
2023-01-19T04:06:19.013Z,68.00
2023-01-19T04:08:48.783Z,68.01
2023-01-19T04:11:15.559Z,67.90
2023-01-19T04:13:42.150Z,67.96
2023-01-19T04:16:10.656Z,67.84
2023-01-19T04:18:37.691Z,69.14
2023-01-19T04:21:07.161Z,69.24
2023-01-19T04:23:34.502Z,68.98
2023-01-19T04:26:03.941Z,68.80
2023-01-19T04:28:31.305Z,69.54
2023-01-19T04:30:58.247Z,68.90
2023-01-19T04:33:25.537Z,69.05
2023-01-19T04:35:54.406Z,68.98
2023-01-19T04:38:22.657Z,69.72
2023-01-19T04:40:50.814Z,69.35
2023-01-19T04:43:17.605Z,68.51
2023-01-19T04:45:44.886Z,68.06
2023-01-19T04:48:12.410Z,68.28
2023-01-19T04:50:39.237Z,68.00
2023-01-19T04:53:05.922Z,68.53
2023-01-19T04:55:32.517Z,68.19
2023-01-19T04:57:59.489Z,69.69
2023-01-19T05:00:26.969Z,69.35
2023-01-19T05:02:53.719Z,69.49
2023-01-19T05:05:20.403Z,68.82
2023-01-19T05:07:47.075Z,68.21
2023-01-19T05:10:13.756Z,68.07
2023-01-19T05:12:42.204Z,67.94
2023-01-19T05:15:09.726Z,68.18
2023-01-19T05:17:36.848Z,67.58
2023-01-19T05:20:04.680Z,67.09
2023-01-19T05:22:31.334Z,67.12
2023-01-19T05:24:58.423Z,67.39
2023-01-19T05:27:25.126Z,68.67
2023-01-19T05:29:52.083Z,68.38
2023-01-19T05:32:18.768Z,68.13
2023-01-19T05:34:45.383Z,68.16
2023-01-19T05:37:12.082Z,68.59
2023-01-19T05:39:38.703Z,69.88
2023-01-19T05:42:05.485Z,70.42
2023-01-19T05:44:32.109Z,70.14
2023-01-19T05:46:58.844Z,70.66
2023-01-19T05:49:25.583Z,70.93
2023-01-19T05:51:52.176Z,70.98
2023-01-19T05:54:18.829Z,71.48
2023-01-19T05:56:45.695Z,72.34
2023-01-19T05:59:13.315Z,71.99
2023-01-19T06:01:40.450Z,73.16
2023-01-19T06:04:07.541Z,72.54
2023-01-19T06:06:34.211Z,73.06
2023-01-19T06:09:00.884Z,72.61
2023-01-19T06:11:28.548Z,72.58
2023-01-19T06:13:55.153Z,72.47
2023-01-19T06:16:21.783Z,74.00
2023-01-19T06:18:48.418Z,73.37
2023-01-19T06:21:15.108Z,72.87
2023-01-19T06:23:41.707Z,72.64
2023-01-19T06:26:08.515Z,73.26
2023-01-19T06:28:35.209Z,72.32
2023-01-19T06:31:02.050Z,71.71
2023-01-19T06:33:28.890Z,71.78
2023-01-19T06:35:56.244Z,72.21
2023-01-19T06:38:23.398Z,72.03
2023-01-19T06:40:55.209Z,72.44
2023-01-19T06:43:22.139Z,71.56
2023-01-19T06:45:50.207Z,71.52
2023-01-19T06:48:17.388Z,70.72
2023-01-19T06:50:48.015Z,70.53
2023-01-19T06:53:16.794Z,70.57
2023-01-19T06:55:44.084Z,71.35
2023-01-19T06:58:11.580Z,70.23
2023-01-19T07:00:38.746Z,70.49
2023-01-19T07:03:08.364Z,71.28
2023-01-19T07:05:36.072Z,71.13
2023-01-19T07:08:03.355Z,70.39
2023-01-19T07:11:26.681Z,71.00
2023-01-19T07:13:16.644Z,71.28
2023-01-19T07:15:43.750Z,70.83
2023-01-19T07:18:10.379Z,71.56
2023-01-19T07:20:37.944Z,71.27
2023-01-19T07:23:04.801Z,70.35
2023-01-19T07:25:31.962Z,69.29
2023-01-19T07:27:59.720Z,68.94
2023-01-19T07:30:26.538Z,68.22
2023-01-19T07:32:57.122Z,67.73
2023-01-19T07:35:24.978Z,67.37
2023-01-19T07:37:51.672Z,67.75
2023-01-19T07:40:18.294Z,67.85
2023-01-19T07:42:49.267Z,67.92
2023-01-19T07:45:17.622Z,67.69
2023-01-19T07:47:45.438Z,68.18
2023-01-19T07:50:13.844Z,68.72
2023-01-19T07:52:40.982Z,69.06
2023-01-19T07:55:08.303Z,68.46
2023-01-19T07:57:36.291Z,68.15
2023-01-19T08:00:05.060Z,68.00
2023-01-19T08:02:34.044Z,68.33
2023-01-19T08:05:00.701Z,68.18
2023-01-19T08:07:27.405Z,68.52
2023-01-19T08:09:54.050Z,68.41
2023-01-19T08:12:20.640Z,68.10
2023-01-19T08:14:47.296Z,68.57
2023-01-19T08:17:14.144Z,68.25
2023-01-19T08:19:42.216Z,68.54
2023-01-19T08:22:09.091Z,68.63
2023-01-19T08:24:35.703Z,68.22
2023-01-19T08:27:03.978Z,69.57
2023-01-19T08:29:31.957Z,70.13
2023-01-19T08:32:00.337Z,69.57
2023-01-19T08:34:27.234Z,68.86
2023-01-19T08:36:54.152Z,68.72
2023-01-19T08:39:20.828Z,68.46
2023-01-19T08:41:47.436Z,68.61
2023-01-19T08:44:14.174Z,67.95
2023-01-19T08:46:40.845Z,68.40
2023-01-19T08:49:07.981Z,68.02
2023-01-19T08:51:35.016Z,68.08
2023-01-19T08:54:01.689Z,68.76
2023-01-19T08:56:28.290Z,68.70
2023-01-19T08:59:08.130Z,68.27
2023-01-19T09:01:37.436Z,67.82
2023-01-19T09:04:04.624Z,67.43
2023-01-19T09:06:31.319Z,66.61
2023-01-19T09:08:58.143Z,67.06
2023-01-19T09:11:24.762Z,67.20
2023-01-19T09:13:51.578Z,66.29
2023-01-19T09:16:18.464Z,65.76
2023-01-19T09:18:46.190Z,65.77
2023-01-19T09:21:13.885Z,65.94
2023-01-19T09:23:40.873Z,66.18
2023-01-19T09:26:07.620Z,65.48
2023-01-19T09:28:34.281Z,65.26
2023-01-19T09:31:06.686Z,65.95
2023-01-19T09:33:34.509Z,66.00
2023-01-19T09:36:02.254Z,66.13
2023-01-19T09:38:32.760Z,65.68
2023-01-19T09:41:00.455Z,65.97
2023-01-19T09:43:32.976Z,65.44
2023-01-19T09:46:03.001Z,65.28
2023-01-19T09:48:57.778Z,65.89
2023-01-19T09:51:32.934Z,66.41
2023-01-19T09:54:05.221Z,66.28
2023-01-19T09:56:32.945Z,67.09
2023-01-19T09:59:00.881Z,68.05
2023-01-19T10:01:38.465Z,68.46
2023-01-19T10:04:37.358Z,68.47
2023-01-19T10:07:09.437Z,68.67
2023-01-19T10:09:46.636Z,67.71
2023-01-19T10:12:17.918Z,67.98
2023-01-19T10:15:01.729Z,70.90
2023-01-19T10:17:42.354Z,69.73
2023-01-19T10:20:19.769Z,67.95
2023-01-19T10:22:50.699Z,67.10
2023-01-19T10:25:24.565Z,66.85
2023-01-19T10:27:51.818Z,65.76
2023-01-19T10:30:30.256Z,65.53
2023-01-19T10:32:57.050Z,67.17
2023-01-19T10:35:25.225Z,67.78
2023-01-19T10:37:58.571Z,67.96
2023-01-19T10:40:42.379Z,67.64
2023-01-19T10:43:38.348Z,67.42
2023-01-19T10:46:19.256Z,67.64
2023-01-19T10:48:49.144Z,67.28
2023-01-19T10:51:15.977Z,65.61
2023-01-19T10:54:01.300Z,65.41
2023-01-19T10:56:35.282Z,64.97
2023-01-19T10:59:05.371Z,65.39
2023-01-19T11:01:36.870Z,66.59
2023-01-19T11:04:27.423Z,66.83
2023-01-19T11:07:35.765Z,65.92
2023-01-19T11:10:11.680Z,64.90
2023-01-19T11:12:43.740Z,65.04
2023-01-19T11:15:23.426Z,64.99
2023-01-19T11:17:50.531Z,64.50
2023-01-19T11:20:47.573Z,64.96
2023-01-19T11:23:14.131Z,65.55
2023-01-19T11:25:40.973Z,65.97
2023-01-19T11:28:27.703Z,66.19
2023-01-19T11:31:01.614Z,65.99
2023-01-19T11:33:49.826Z,65.80
2023-01-19T11:36:23.288Z,64.89
2023-01-19T11:38:53.421Z,65.69
2023-01-19T11:41:29.655Z,65.75
2023-01-19T11:44:13.374Z,65.68
2023-01-19T11:46:43.392Z,65.97
2023-01-19T11:49:27.525Z,66.01
2023-01-19T11:52:20.377Z,65.49
2023-01-19T11:55:17.339Z,65.08
2023-01-19T11:57:47.479Z,65.04
2023-01-19T12:00:44.737Z,64.31
2023-01-19T12:03:34.802Z,64.58
2023-01-19T12:06:06.847Z,64.41
2023-01-19T12:08:37.519Z,64.95
2023-01-19T12:11:05.989Z,64.78
2023-01-19T12:13:34.367Z,65.43
2023-01-19T12:16:20.001Z,65.74
2023-01-19T12:19:11.024Z,67.30
2023-01-19T12:21:38.275Z,67.40
2023-01-19T12:24:18.112Z,67.78
2023-01-19T12:26:57.637Z,67.14
2023-01-19T12:29:29.283Z,66.72
2023-01-19T12:32:14.109Z,66.15
2023-01-19T12:34:41.605Z,65.35
2023-01-19T12:37:32.107Z,65.50
2023-01-19T12:40:05.635Z,65.73
2023-01-19T12:42:33.930Z,65.08
2023-01-19T12:45:17.092Z,64.96
2023-01-19T12:47:53.733Z,65.66
2023-01-19T12:50:23.514Z,65.11
2023-01-19T12:52:57.290Z,64.42
2023-01-19T12:55:31.238Z,65.87
2023-01-19T12:58:17.746Z,66.39
2023-01-19T13:00:49.731Z,64.63
2023-01-19T13:03:16.300Z,63.89
2023-01-19T13:05:42.923Z,64.30
2023-01-19T13:08:09.503Z,63.41
2023-01-19T13:11:00.073Z,64.08
2023-01-19T13:13:39.936Z,63.66
2023-01-19T13:16:18.833Z,64.10
2023-01-19T13:19:00.705Z,64.18
2023-01-19T13:21:30.492Z,63.76
2023-01-19T13:23:59.665Z,63.39
2023-01-19T13:26:32.837Z,63.05
2023-01-19T13:29:06.619Z,63.19
2023-01-19T13:31:39.559Z,61.87
2023-01-19T13:34:14.084Z,62.36
2023-01-19T13:36:45.665Z,62.99
2023-01-19T13:39:28.004Z,63.48
2023-01-19T13:41:57.831Z,64.58
2023-01-19T13:44:26.669Z,64.76
2023-01-19T13:46:54.479Z,65.86
2023-01-19T13:49:31.171Z,65.09
2023-01-19T13:52:17.000Z,65.22
2023-01-19T13:55:03.088Z,63.98
2023-01-19T13:57:39.470Z,63.01
2023-01-19T14:00:06.749Z,62.63
2023-01-19T14:02:33.571Z,62.25
2023-01-19T14:05:14.355Z,60.82
2023-01-19T14:07:41.132Z,61.08
2023-01-19T14:10:14.601Z,61.19
2023-01-19T14:12:54.503Z,62.63
2023-01-19T14:15:25.497Z,63.01
2023-01-19T14:18:32.260Z,62.10
2023-01-19T14:21:03.449Z,62.99
2023-01-19T14:23:48.358Z,62.37
2023-01-19T14:26:51.388Z,62.26
2023-01-19T14:29:25.652Z,61.02
2023-01-19T14:32:28.040Z,61.37
2023-01-19T14:35:04.270Z,61.93
2023-01-19T14:37:52.124Z,61.59
2023-01-19T14:40:21.518Z,61.31
2023-01-19T14:42:53.842Z,61.42
2023-01-19T14:45:35.312Z,60.65
2023-01-19T14:48:17.800Z,62.34
2023-01-19T14:51:01.324Z,62.64
2023-01-19T14:53:29.941Z,61.47
2023-01-19T14:56:01.010Z,62.46
2023-01-19T14:58:31.564Z,63.36
2023-01-19T15:00:58.404Z,64.10
2023-01-19T15:03:38.564Z,63.76
2023-01-19T15:06:18.820Z,63.40
2023-01-19T15:08:46.269Z,64.57
2023-01-19T15:11:37.491Z,64.21
2023-01-19T15:14:04.210Z,63.31
2023-01-19T15:16:34.254Z,63.68
2023-01-19T15:19:00.976Z,62.79
2023-01-19T15:21:27.587Z,62.07
2023-01-19T15:23:55.239Z,61.45
2023-01-19T15:26:24.476Z,61.17
2023-01-19T15:28:51.525Z,60.48
2023-01-19T15:31:20.873Z,60.07
2023-01-19T15:33:47.875Z,60.17
2023-01-19T15:36:17.971Z,59.95
2023-01-19T15:38:45.683Z,60.47
2023-01-19T15:41:13.382Z,60.73
2023-01-19T15:43:40.092Z,60.55
2023-01-19T15:46:07.499Z,60.22
2023-01-19T15:48:34.238Z,59.81
2023-01-19T15:51:00.898Z,59.85
2023-01-19T15:53:27.930Z,59.85
2023-01-19T15:55:56.904Z,59.57
2023-01-19T15:58:24.378Z,59.62
2023-01-19T16:00:56.032Z,59.90
2023-01-19T16:03:25.532Z,59.89
2023-01-19T16:05:52.628Z,59.33
2023-01-19T16:08:19.372Z,58.95
2023-01-19T16:10:46.011Z,59.17
2023-01-19T16:13:12.918Z,59.36
2023-01-19T16:15:42.259Z,59.43
2023-01-19T16:18:08.909Z,59.02
2023-01-19T16:20:35.564Z,59.06
2023-01-19T16:23:14.513Z,58.86
2023-01-19T16:25:42.164Z,59.48
2023-01-19T16:28:09.205Z,59.38
2023-01-19T16:30:36.000Z,59.49
2023-01-19T16:33:02.700Z,59.73
2023-01-19T16:35:29.299Z,59.36
2023-01-19T16:37:55.950Z,59.51
2023-01-19T16:40:22.523Z,59.56
2023-01-19T16:42:49.312Z,60.00
2023-01-19T16:45:16.036Z,59.75
2023-01-19T16:47:43.092Z,59.68
2023-01-19T16:50:12.848Z,59.39
2023-01-19T16:52:39.746Z,59.68
2023-01-19T16:55:09.516Z,59.42
2023-01-19T16:57:38.979Z,59.65
2023-01-19T17:00:07.912Z,60.22
2023-01-19T17:02:34.638Z,60.40
2023-01-19T17:05:01.444Z,60.12
2023-01-19T17:07:28.771Z,59.58
2023-01-19T17:09:56.140Z,59.17
2023-01-19T17:12:22.804Z,59.09
2023-01-19T17:14:49.384Z,59.93
2023-01-19T17:17:15.978Z,59.81
2023-01-19T17:19:42.641Z,59.97
2023-01-19T17:22:09.283Z,59.85
2023-01-19T17:24:35.978Z,59.75
2023-01-19T17:27:02.585Z,59.35
2023-01-19T17:29:29.184Z,59.27
2023-01-19T17:31:55.780Z,58.92
2023-01-19T17:34:22.366Z,59.13
2023-01-19T17:36:51.406Z,58.80
2023-01-19T17:39:18.615Z,59.40
2023-01-19T17:41:45.299Z,59.73
2023-01-19T17:44:11.964Z,59.11
2023-01-19T17:46:39.181Z,59.11
2023-01-19T17:49:07.507Z,58.98
2023-01-19T17:51:35.200Z,58.87
2023-01-19T17:54:02.175Z,58.72
2023-01-19T17:56:32.326Z,58.91
2023-01-19T17:58:59.499Z,59.20
2023-01-19T18:01:31.610Z,59.29
2023-01-19T18:03:58.770Z,59.81
2023-01-19T18:06:25.429Z,61.37
2023-01-19T18:08:52.629Z,59.88
2023-01-19T18:11:21.218Z,59.09
2023-01-19T18:13:49.904Z,59.09
2023-01-19T18:16:25.949Z,59.84
2023-01-19T18:18:53.842Z,59.57
2023-01-19T18:21:21.935Z,59.59
2023-01-19T18:23:49.739Z,59.59
2023-01-19T18:26:21.317Z,59.09
2023-01-19T18:28:49.194Z,58.93
2023-01-19T18:31:19.057Z,59.93
2023-01-19T18:33:47.692Z,59.53
2023-01-19T18:36:14.640Z,59.49
2023-01-19T18:38:41.836Z,59.11
2023-01-19T18:41:14.196Z,58.88
2023-01-19T18:43:41.127Z,59.47
2023-01-19T18:46:08.033Z,59.05
2023-01-19T18:48:34.905Z,58.96
2023-01-19T18:51:09.354Z,58.63
2023-01-19T18:53:35.960Z,58.79
2023-01-19T18:56:03.383Z,58.88
2023-01-19T18:58:31.774Z,58.89
2023-01-19T19:01:00.349Z,59.08
2023-01-19T19:03:27.732Z,58.59
2023-01-19T19:05:54.506Z,58.89
2023-01-19T19:08:21.160Z,60.14
2023-01-19T19:10:47.850Z,60.87
2023-01-19T19:13:16.519Z,59.95
2023-01-19T19:15:44.465Z,59.54
2023-01-19T19:18:13.960Z,59.07
2023-01-19T19:20:42.092Z,58.78
2023-01-19T19:23:09.740Z,58.68
2023-01-19T19:25:37.415Z,58.70
2023-01-19T19:28:04.484Z,58.52
2023-01-19T19:30:32.915Z,58.60
2023-01-19T19:33:01.118Z,58.62
2023-01-19T19:35:28.253Z,59.18
2023-01-19T19:37:57.847Z,59.65
2023-01-19T19:40:28.139Z,59.75
2023-01-19T19:42:56.436Z,60.21
2023-01-19T19:45:24.987Z,60.87
2023-01-19T19:47:51.668Z,61.33
2023-01-19T19:50:19.071Z,61.75
2023-01-19T19:52:45.703Z,61.38
2023-01-19T19:55:12.740Z,61.74
2023-01-19T19:57:39.577Z,61.54
2023-01-19T20:00:06.883Z,62.02
2023-01-19T20:02:33.509Z,62.35
2023-01-19T20:05:00.210Z,61.30
2023-01-19T20:07:26.919Z,61.39
2023-01-19T20:09:55.122Z,60.58
2023-01-19T20:12:22.073Z,60.67
2023-01-19T20:14:48.797Z,59.76
2023-01-19T20:17:15.440Z,59.78
2023-01-19T20:19:43.794Z,59.36
2023-01-19T20:22:10.446Z,59.78
2023-01-19T20:24:37.029Z,61.83
2023-01-19T20:27:03.779Z,60.55
2023-01-19T20:29:30.704Z,59.58
2023-01-19T20:31:57.733Z,59.31
2023-01-19T20:34:28.230Z,59.60
2023-01-19T20:36:55.318Z,61.24
2023-01-19T20:39:23.586Z,60.65
2023-01-19T20:41:51.472Z,60.14
2023-01-19T20:44:22.348Z,61.51
2023-01-19T20:46:49.619Z,60.39
2023-01-19T20:49:16.270Z,59.91
2023-01-19T20:51:45.260Z,59.85
2023-01-19T20:54:14.271Z,59.19
2023-01-19T20:56:41.669Z,60.04
2023-01-19T20:59:09.598Z,59.22
2023-01-19T21:01:36.752Z,59.56
2023-01-19T21:04:03.803Z,60.71
2023-01-19T21:06:30.457Z,61.63
2023-01-19T21:08:57.653Z,61.82
2023-01-19T21:11:24.605Z,61.56
2023-01-19T21:13:55.788Z,61.08
2023-01-19T21:16:31.532Z,60.58
2023-01-19T21:18:58.321Z,60.54
2023-01-19T21:21:30.774Z,60.19
2023-01-19T21:24:00.050Z,60.36
2023-01-19T21:26:26.856Z,61.63
2023-01-19T21:28:53.542Z,62.34
2023-01-19T21:31:22.918Z,63.60
2023-01-19T21:33:53.516Z,64.26
2023-01-19T21:36:23.124Z,61.86
2023-01-19T21:38:51.491Z,60.88
2023-01-19T21:41:18.661Z,60.33
2023-01-19T21:43:46.242Z,61.10
2023-01-19T21:46:17.211Z,60.19
2023-01-19T21:48:44.051Z,60.33
2023-01-19T21:51:10.688Z,60.32
2023-01-19T21:53:37.592Z,59.87
2023-01-19T21:56:09.606Z,62.82
2023-01-19T21:58:36.474Z,62.27
2023-01-19T22:01:06.352Z,62.90
2023-01-19T22:03:33.220Z,64.72
2023-01-19T22:06:10.585Z,62.77
2023-01-19T22:08:37.685Z,62.13
2023-01-19T22:11:08.674Z,61.30
2023-01-19T22:13:36.204Z,61.09
2023-01-19T22:16:04.814Z,61.42
2023-01-19T22:18:31.442Z,62.01
2023-01-19T22:21:08.069Z,62.85
2023-01-19T22:23:34.953Z,63.23
2023-01-19T22:26:01.596Z,62.60
2023-01-19T22:28:28.171Z,63.71
2023-01-19T22:30:54.873Z,62.98
2023-01-19T22:33:21.489Z,62.91
2023-01-19T22:35:48.083Z,63.12
2023-01-19T22:38:14.662Z,63.40
2023-01-19T22:40:41.251Z,64.09
2023-01-19T22:43:07.831Z,65.86
2023-01-19T22:45:34.427Z,65.08
2023-01-19T22:48:01.026Z,64.49
2023-01-19T22:50:27.641Z,65.30
2023-01-19T22:52:57.875Z,64.12
2023-01-19T22:55:24.905Z,62.93
2023-01-19T22:57:51.500Z,63.75
2023-01-19T23:00:18.688Z,63.51
2023-01-19T23:02:45.295Z,64.08
2023-01-19T23:05:12.476Z,63.33
2023-01-19T23:07:39.853Z,63.54
2023-01-19T23:10:07.161Z,63.50
2023-01-19T23:12:33.769Z,63.66
2023-01-19T23:15:00.373Z,64.34
2023-01-19T23:17:27.110Z,64.79
2023-01-19T23:19:53.757Z,65.42
2023-01-19T23:22:20.363Z,64.50
2023-01-19T23:24:47.063Z,66.55
2023-01-19T23:27:13.676Z,67.86
2023-01-19T23:29:40.347Z,69.34
2023-01-19T23:32:07.083Z,67.58
2023-01-19T23:34:34.039Z,66.40
2023-01-19T23:37:00.684Z,65.27
2023-01-19T23:39:27.414Z,64.75
2023-01-19T23:41:54.072Z,64.94
2023-01-19T23:44:20.730Z,64.69
2023-01-19T23:46:47.442Z,64.32
2023-01-19T23:49:14.303Z,64.50
2023-01-19T23:51:42.131Z,64.51
2023-01-19T23:54:08.839Z,64.17
2023-01-19T23:56:37.392Z,64.28
2023-01-19T23:59:12.308Z,63.71
